Time;durP1;ratioP1;P1;durP2;ratioP2;P2;SDS_P1;SDS_P2;PMS_P1;PMS_P2;Temp;Humidity;BMP_temperature;BMP_pressure;BME280_temperature;BME280_humidity;BME280_pressure;Samples;Min_cycle;Max_cycle;Signal;HPM_P1;HPM_P2
2022/03/26 00:02:06;;;;;;;40.03;21.57;;;4.50;1.00;5.20;95044.00;;;;7393823;19;20121;-76
2022/03/26 00:04:34;;;;;;;36.40;22.53;;;4.60;1.00;5.10;95057.00;;;;7392896;19;20172;-76
2022/03/26 00:07:08;;;;;;;37.77;21.43;;;4.50;1.00;4.90;95049.00;;;;7394888;19;20148;-76
2022/03/26 00:09:36;;;;;;;38.57;22.53;;;4.50;1.00;4.90;95035.00;;;;7401182;19;20216;-75
2022/03/26 00:12:04;;;;;;;38.67;23.40;;;4.40;1.00;4.80;95062.00;;;;7401449;19;20135;-75
2022/03/26 00:14:38;;;;;;;36.67;21.50;;;4.30;1.00;4.80;95057.00;;;;7400444;19;20219;-76
2022/03/26 00:17:06;;;;;;;33.53;21.63;;;4.30;1.00;4.80;95049.00;;;;7399378;19;20136;-76
2022/03/26 00:19:33;;;;;;;40.50;23.40;;;4.30;1.00;4.60;95032.00;;;;7400050;19;20168;-75
2022/03/26 00:22:07;;;;;;;38.53;22.53;;;4.10;1.00;4.60;95062.00;;;;7400590;19;20610;-76
2022/03/26 00:24:34;;;;;;;34.13;21.77;;;4.10;1.00;4.50;95053.00;;;;7400108;19;20175;-75
2022/03/26 00:27:01;;;;;;;39.80;21.40;;;4.00;1.00;4.30;95037.00;;;;7396341;19;20638;-75
2022/03/26 00:29:35;;;;;;;37.30;22.93;;;3.90;1.00;4.40;95059.00;;;;7398049;19;20635;-76
2022/03/26 00:32:15;;;;;;;42.63;22.43;;;3.80;1.00;4.40;95053.00;;;;7398540;19;20180;-75
2022/03/26 00:34:50;;;;;;;35.67;21.20;;;3.80;1.00;4.30;95043.00;;;;7398758;19;20148;-75
2022/03/26 00:37:17;;;;;;;40.30;21.23;;;3.70;1.00;4.30;95035.00;;;;7400553;19;21863;-75
2022/03/26 00:39:44;;;;;;;38.57;22.27;;;3.60;1.00;4.60;95044.00;;;;7398522;19;20599;-75
2022/03/26 00:42:27;;;;;;;42.43;22.57;;;3.70;1.00;4.90;95033.00;;;;7394343;19;20153;-76
2022/03/26 00:45:29;;;;;;;36.40;22.00;;;3.80;1.00;5.00;95042.00;;;;7400134;19;20182;-75
2022/03/26 00:48:08;;;;;;;38.00;21.87;;;3.90;1.00;5.10;95047.00;;;;7399086;19;20127;-75
2022/03/26 00:50:36;;;;;;;38.13;22.07;;;4.00;1.00;5.00;95032.00;;;;7399819;19;20164;-74
2022/03/26 00:53:16;;;;;;;39.33;21.77;;;4.10;1.00;5.10;95034.00;;;;7398658;19;20156;-76
2022/03/26 00:55:50;;;;;;;38.77;22.07;;;4.10;1.00;5.10;95042.00;;;;7397416;19;20132;-75
2022/03/26 00:58:25;;;;;;;40.10;22.47;;;4.10;1.00;5.10;95037.00;;;;7397349;19;20598;-76
2022/03/26 01:00:52;;;;;;;34.47;21.07;;;4.20;1.00;5.10;95023.00;;;;7395192;19;20626;-74
2022/03/26 01:03:20;;;;;;;33.37;21.20;;;4.10;1.00;5.00;95042.00;;;;7395257;19;20220;-74
2022/03/26 01:05:54;;;;;;;39.13;22.07;;;4.10;1.00;4.90;95039.00;;;;7394989;19;20148;-76
2022/03/26 01:08:21;;;;;;;33.63;21.17;;;4.10;1.00;4.60;95040.00;;;;7399175;19;20144;-75
2022/03/26 01:10:48;;;;;;;42.63;23.30;;;4.10;1.00;4.40;95040.00;;;;7398137;19;20543;-75
2022/03/26 01:13:25;;;;;;;35.37;21.33;;;;;4.30;95036.00;;;;7397686;19;20216;-76
2022/03/26 01:15:53;;;;;;;35.37;21.37;;;;;4.10;95043.00;;;;7396583;19;20129;-75
2022/03/26 01:18:22;;;;;;;35.67;21.10;;;;;4.00;95042.00;;;;7394423;19;20125;-76
2022/03/26 01:20:56;;;;;;;38.43;22.17;;;3.50;1.00;3.90;95021.00;;;;7396637;19;20614;-74
2022/03/26 01:23:23;;;;;;;40.87;22.67;;;3.40;1.00;4.00;95037.00;;;;7397424;19;20607;-76
2022/03/26 01:25:51;;;;;;;35.60;21.83;;;3.30;1.00;4.00;95034.00;;;;7396202;19;20680;-75
2022/03/26 01:28:35;;;;;;;42.47;22.73;;;3.30;1.00;4.20;95036.00;;;;7398562;19;20148;-76
2022/03/26 01:31:02;;;;;;;34.53;20.03;;;3.30;1.00;4.10;95034.00;;;;7395027;19;20150;-76
2022/03/26 01:33:48;;;;;;;38.00;22.20;;;3.30;1.00;4.30;95008.00;;;;7397729;19;20511;-75
2022/03/26 01:36:22;;;;;;;42.50;20.37;;;3.40;1.00;4.20;95025.00;;;;7399877;19;20136;-76
2022/03/26 01:38:57;;;;;;;35.97;21.37;;;3.40;1.00;4.00;95020.00;;;;7398294;19;20539;-74
2022/03/26 01:41:24;;;;;;;38.47;22.07;;;3.40;1.00;3.90;95032.00;;;;7397644;19;20642;-75
2022/03/26 01:43:51;;;;;;;37.27;21.03;;;3.30;1.00;3.90;95017.00;;;;7396730;19;20152;-75
2022/03/26 01:46:26;;;;;;;35.87;20.83;;;3.30;1.00;3.80;95030.00;;;;7395157;19;20606;-76
2022/03/26 01:48:54;;;;;;;35.73;22.33;;;3.20;1.00;3.80;95024.00;;;;7395542;19;20154;-75
2022/03/26 01:51:21;;;;;;;38.37;22.23;;;3.20;1.00;3.80;95036.00;;;;7397873;19;20200;-76
2022/03/26 01:53:55;;;;;;;36.27;20.23;;;3.20;1.00;3.80;95023.00;;;;7394738;19;20129;-76
2022/03/26 01:56:25;;;;;;;32.20;19.73;;;3.20;1.00;3.70;95001.00;;;;7397043;19;20523;-76
2022/03/26 01:58:52;;;;;;;43.53;21.20;;;3.10;12.20;3.70;95013.00;;;;7396075;19;20145;-75
2022/03/26 02:01:27;;;;;;;36.93;20.60;;;3.10;56.00;3.80;95024.00;;;;7397352;19;20272;-75
2022/03/26 02:03:55;;;;;;;33.60;20.67;;;3.10;23.90;3.90;95023.00;;;;7397198;19;20178;-75
2022/03/26 02:06:24;;;;;;;36.63;20.20;;;3.10;1.00;3.90;95010.00;;;;7397041;19;20579;-75
2022/03/26 02:09:05;;;;;;;37.17;21.13;;;3.20;1.00;3.80;95016.00;;;;7397703;19;20137;-76
2022/03/26 02:11:36;;;;;;;35.70;20.33;;;3.20;1.00;3.80;95002.00;;;;7394511;19;20121;-76
2022/03/26 02:14:12;;;;;;;36.93;19.77;;;3.10;1.00;3.90;95028.00;;;;7388349;19;20142;-75
2022/03/26 02:16:42;;;;;;;36.40;20.47;;;3.10;1.00;4.20;95019.00;;;;7398088;19;20135;-76
2022/03/26 02:19:18;;;;;;;42.93;20.23;;;3.20;1.00;4.30;95008.00;;;;7394788;19;20216;-76
2022/03/26 02:21:49;;;;;;;32.03;19.67;;;3.40;1.00;4.30;95004.00;;;;7395816;19;20136;-76
2022/03/26 02:24:16;;;;;;;34.37;20.40;;;3.50;1.00;4.50;95012.00;;;;7394719;19;20136;-76
2022/03/26 02:26:50;;;;;;;40.83;21.60;;;3.60;1.00;4.60;94994.00;;;;7394671;19;20647;-76
2022/03/26 02:29:17;;;;;;;36.93;20.77;;;3.60;1.00;4.60;95011.00;;;;7392389;19;20121;-77
2022/03/26 02:31:45;;;;;;;34.30;20.20;;;3.70;1.00;4.40;94983.00;;;;7395966;19;20156;-76
2022/03/26 02:34:26;;;;;;;40.93;21.00;;;3.70;1.00;4.50;95006.00;;;;7397335;19;20615;-76
2022/03/26 02:37:13;;;;;;;39.17;21.50;;;3.80;1.00;4.40;94971.00;;;;7394148;19;20589;-75
2022/03/26 02:39:47;;;;;;;42.00;21.47;;;3.70;1.00;4.20;94983.00;;;;7398301;19;20117;-77
2022/03/26 02:42:15;;;;;;;34.90;20.27;;;3.70;1.00;4.00;95011.00;;;;7395877;19;20564;-75
2022/03/26 02:44:43;;;;;;;31.50;20.47;;;3.50;1.00;3.90;94969.00;;;;7396291;19;20159;-76
2022/03/26 02:47:18;;;;;;;39.70;20.37;;;3.40;1.00;3.90;94982.00;;;;7397164;19;20180;-76
2022/03/26 02:49:45;;;;;;;35.27;19.93;;;3.30;1.00;3.90;95004.00;;;;7396857;19;20179;-75
2022/03/26 02:52:12;;;;;;;34.33;20.77;;;3.30;1.00;4.00;94997.00;;;;7394200;19;20141;-76
2022/03/26 02:54:46;;;;;;;38.70;19.83;;;3.30;1.00;3.80;94936.00;;;;7388254;19;20928;-75
2022/03/26 02:57:13;;;;;;;36.07;20.70;;;3.20;1.00;3.80;94965.00;;;;7395465;19;20602;-76
2022/03/26 02:59:40;;;;;;;35.50;19.93;;;3.20;1.00;3.60;94997.00;;;;7396033;19;20165;-75
2022/03/26 03:02:13;;;;;;;39.60;19.83;;;3.10;1.00;3.40;95003.00;;;;7395959;19;20630;-76
2022/03/26 03:04:41;;;;;;;31.67;20.40;;;3.00;1.00;3.40;94997.00;;;;7391474;19;20136;-76
2022/03/26 03:07:08;;;;;;;38.80;20.53;;;2.90;1.00;3.30;95002.00;;;;7395434;19;20148;-75
2022/03/26 03:09:41;;;;;;;32.77;19.87;;;2.80;1.00;3.20;95000.00;;;;7391923;19;20156;-76
2022/03/26 03:12:09;;;;;;;38.80;20.23;;;2.70;18.80;3.30;94984.00;;;;7394165;19;20172;-75
2022/03/26 03:14:37;;;;;;;39.47;20.00;;;2.70;13.30;3.30;95004.00;;;;7394688;19;20500;-76
2022/03/26 03:17:11;;;;;;;34.53;19.23;;;2.70;15.20;3.30;94986.00;;;;7391631;19;20196;-76
2022/03/26 03:19:38;;;;;;;37.03;19.70;;;2.60;22.60;3.30;94967.00;;;;7390922;19;20487;-76
2022/03/26 03:22:05;;;;;;;33.90;20.23;;;2.60;99.90;3.20;95000.00;;;;7394203;19;20219;-76
2022/03/26 03:24:38;;;;;;;38.73;20.37;;;2.60;28.30;3.20;94973.00;;;;7391473;19;20169;-76
2022/03/26 03:27:06;;;;;;;37.07;20.57;;;2.60;34.20;3.20;94999.00;;;;7394413;19;20614;-76
2022/03/26 03:29:33;;;;;;;33.57;21.27;;;2.60;33.50;3.10;94989.00;;;;7394687;19;20152;-76
2022/03/26 03:32:14;;;;;;;32.17;20.17;;;2.60;53.70;3.00;94999.00;;;;7393182;19;20202;-76
2022/03/26 03:34:49;;;;;;;42.30;21.43;;;2.50;47.10;3.10;94987.00;;;;7394332;19;20163;-76
2022/03/26 03:37:24;;;;;;;35.80;19.47;;;2.50;40.60;3.00;94977.00;;;;7395038;19;20129;-76
2022/03/26 03:39:51;;;;;;;34.00;20.07;;;2.50;67.70;3.00;94963.00;;;;7394150;19;20126;-75
2022/03/26 03:42:18;;;;;;;32.47;20.60;;;2.50;61.70;3.00;94982.00;;;;7394086;19;20144;-76
2022/03/26 03:44:51;;;;;;;32.57;19.47;;;2.50;99.90;3.00;94959.00;;;;7394479;19;20608;-76
2022/03/26 03:47:18;;;;;;;37.77;19.90;;;2.40;96.00;3.00;94972.00;;;;7391845;19;20160;-76
2022/03/26 03:49:46;;;;;;;39.80;19.40;;;2.40;99.90;3.10;94951.00;;;;7394874;19;20135;-76
2022/03/26 03:52:19;;;;;;;30.87;18.87;;;2.40;54.20;3.20;94968.00;;;;7393975;19;20604;-75
2022/03/26 03:54:47;;;;;;;40.50;20.13;;;2.50;39.60;3.20;94979.00;;;;7393603;19;20170;-77
2022/03/26 03:57:14;;;;;;;37.33;20.43;;;2.50;39.70;3.10;94975.00;;;;7393829;19;20468;-76
2022/03/26 03:59:48;;;;;;;33.00;19.27;;;2.50;57.00;3.10;94968.00;;;;7389215;19;20152;-76
2022/03/26 04:02:16;;;;;;;33.30;20.60;;;2.50;63.60;3.00;94972.00;;;;7393102;19;20611;-76
2022/03/26 04:04:43;;;;;;;34.47;19.53;;;2.50;62.60;3.10;94955.00;;;;7393383;19;20583;-75
2022/03/26 04:07:17;;;;;;;32.20;18.73;;;2.40;99.90;3.10;94974.00;;;;7392249;19;20152;-77
2022/03/26 04:09:44;;;;;;;33.93;20.27;;;2.50;97.90;3.20;94953.00;;;;7389707;19;20154;-77
2022/03/26 04:12:11;;;;;;;34.20;19.00;;;2.40;62.80;3.30;94980.00;;;;7390570;19;20125;-76
2022/03/26 04:14:44;;;;;;;34.83;20.03;;;2.50;54.80;3.30;94959.00;;;;7392640;19;20498;-76
2022/03/26 04:17:12;;;;;;;37.10;20.00;;;2.50;36.80;3.30;94941.00;;;;7392636;19;20174;-75
2022/03/26 04:19:40;;;;;;;32.97;20.07;;;2.50;72.20;3.30;94967.00;;;;7390847;19;20132;-76
2022/03/26 04:22:13;;;;;;;34.80;19.43;;;2.50;61.70;3.30;94958.00;;;;7393013;19;20499;-75
2022/03/26 04:24:40;;;;;;;31.90;18.87;;;2.60;35.30;3.30;94976.00;;;;7392655;19;20170;-75
2022/03/26 04:27:08;;;;;;;36.93;19.93;;;2.60;50.40;3.50;94979.00;;;;7389844;19;20178;-76
2022/03/26 04:29:41;;;;;;;30.83;18.70;;;2.60;1.00;3.40;94969.00;;;;7393030;19;20616;-75
2022/03/26 04:32:15;;;;;;;37.53;20.07;;;2.70;13.40;3.40;94981.00;;;;7393279;19;20161;-76
2022/03/26 04:34:56;;;;;;;32.87;18.77;;;2.60;1.00;3.50;94979.00;;;;7390714;19;20160;-75
2022/03/26 04:37:23;;;;;;;32.20;18.63;;;2.70;26.50;3.60;94966.00;;;;7391521;19;20140;-76
2022/03/26 04:39:56;;;;;;;34.07;19.30;;;2.70;3.90;3.40;94960.00;;;;7390675;19;20186;-76
2022/03/26 04:42:23;;;;;;;32.07;17.97;;;2.70;18.40;3.20;94956.00;;;;7393997;19;20133;-76
2022/03/26 04:44:51;;;;;;;36.03;20.20;;;2.60;37.10;2.90;94966.00;;;;7392322;19;20157;-76
2022/03/26 04:47:24;;;;;;;37.43;20.83;;;2.50;68.50;2.70;94953.00;;;;7393084;19;20148;-76
2022/03/26 04:49:53;;;;;;;30.77;18.37;;;2.40;99.90;2.70;94960.00;;;;7389839;19;20483;-77
2022/03/26 04:52:20;;;;;;;41.03;20.53;;;2.20;99.90;2.80;94951.00;;;;7390678;19;20154;-76
2022/03/26 04:54:53;;;;;;;35.70;19.20;;;2.20;99.90;2.70;94952.00;;;;7398167;19;20140;-76
2022/03/26 04:57:20;;;;;;;35.60;19.47;;;2.10;99.90;2.50;94969.00;;;;7398955;19;20151;-77
2022/03/26 04:59:48;;;;;;;34.17;20.07;;;2.00;99.90;2.40;94978.00;;;;7401022;19;20601;-75
2022/03/26 05:02:22;;;;;;;37.57;20.87;;;1.90;99.90;2.50;94988.00;;;;7399900;19;20155;-75
2022/03/26 05:04:49;;;;;;;35.33;19.90;;;1.90;99.90;2.60;94983.00;;;;7396121;19;20177;-75
2022/03/26 05:10:08;;;;;;;39.20;19.53;;;1.90;99.90;2.70;94938.00;;;;7398104;19;20623;-76
2022/03/26 05:12:35;;;;;;;36.10;18.77;;;1.90;99.90;2.70;94986.00;;;;7400386;19;20463;-75
2022/03/26 05:15:03;;;;;;;33.97;20.03;;;1.90;99.90;2.70;94992.00;;;;7394427;19;20157;-75
2022/03/26 05:17:37;;;;;;;34.10;20.07;;;2.00;99.90;2.90;94994.00;;;;7397062;19;20599;-75
2022/03/26 05:20:06;;;;;;;37.67;21.10;;;2.00;99.90;3.00;94975.00;;;;7399397;19;20623;-75
2022/03/26 05:22:34;;;;;;;39.97;21.30;;;2.10;99.90;3.00;94967.00;;;;7399106;19;20490;-75
2022/03/26 05:25:12;;;;;;;35.70;20.20;;;2.10;99.90;2.80;94990.00;;;;7398413;19;20593;-74
2022/03/26 05:27:48;;;;;;;33.83;20.33;;;2.10;99.90;2.70;94990.00;;;;7395609;19;20536;-75
2022/03/26 05:30:24;;;;;;;36.10;19.37;;;2.00;99.90;2.70;94982.00;;;;7397346;19;20158;-74
2022/03/26 05:33:00;;;;;;;40.70;21.40;;;2.00;99.90;2.60;94946.00;;;;7393782;19;20684;-75
2022/03/26 05:35:40;;;;;;;37.47;20.33;;;1.90;99.90;2.80;94998.00;;;;7397754;19;20634;-75
2022/03/26 05:38:07;;;;;;;34.37;19.27;;;2.00;99.90;2.80;94996.00;;;;7394679;19;20168;-75
2022/03/26 05:40:41;;;;;;;36.87;19.07;;;2.00;99.90;2.90;94996.00;;;;7394871;19;20498;-75
2022/03/26 05:43:08;;;;;;;38.03;20.30;;;2.00;99.90;2.90;94977.00;;;;7396389;19;20146;-76
2022/03/26 05:45:35;;;;;;;36.23;20.83;;;2.00;99.90;3.00;94961.00;;;;7396070;19;20154;-76
2022/03/26 05:48:10;;;;;;;37.57;21.53;;;2.10;99.90;3.20;94980.00;;;;7396978;19;20140;-75
2022/03/26 05:50:37;;;;;;;39.53;19.37;;;2.20;99.90;3.30;94990.00;;;;7397351;19;20583;-75
2022/03/26 05:53:04;;;;;;;37.73;20.17;;;2.30;99.90;3.40;94994.00;;;;7397669;19;20196;-75
2022/03/26 05:55:37;;;;;;;40.67;20.90;;;2.40;99.90;3.60;95012.00;;;;7395803;19;20239;-76
2022/03/26 05:58:05;;;;;;;35.37;20.17;;;2.50;99.90;3.70;94972.00;;;;7398178;19;20512;-75
2022/03/26 06:00:32;;;;;;;40.80;21.10;;;2.70;99.90;3.90;95020.00;;;;7398339;19;20619;-77
2022/03/26 06:03:07;;;;;;;31.27;19.87;;;2.80;35.90;4.20;95025.00;;;;7402201;19;20446;-76
2022/03/26 06:05:35;;;;;;;39.20;20.37;;;3.00;1.00;4.20;94990.00;;;;7399260;19;20133;-76
2022/03/26 06:13:36;;;;;;;36.73;20.20;;;3.40;19.90;4.50;94850.00;;;;7393318;19;20180;-84
2022/03/26 06:32:37;;;;;;;37.23;20.50;;;4.50;1.00;5.00;95027.00;;;;7364199;19;20188;-80
2022/03/26 06:35:18;;;;;;;35.77;20.33;;;4.70;1.00;6.30;95117.00;;;;7423881;19;20168;-76
2022/03/26 06:37:45;;;;;;;41.77;19.57;;;4.90;1.00;5.80;95074.00;;;;7424438;19;20614;-77
2022/03/26 06:40:20;;;;;;;35.57;21.47;;;5.10;1.00;6.80;94857.00;;;;7423070;19;20152;-82
2022/03/26 06:42:47;;;;;;;34.97;20.23;;;5.40;1.00;7.20;94799.00;;;;7424085;19;20520;-80
2022/03/26 06:45:16;;;;;;;38.57;20.80;;;5.60;1.00;7.30;94827.00;;;;7425753;19;20164;-83
2022/03/26 06:47:51;;;;;;;33.87;20.47;;;5.90;1.00;7.60;95003.00;;;;7422376;19;20184;-78
2022/03/26 06:50:18;;;;;;;34.90;21.37;;;6.30;1.00;7.90;95059.00;;;;7426666;19;20543;-82
2022/03/26 06:52:45;;;;;;;35.70;22.17;;;6.70;1.00;8.20;94852.00;;;;7422185;19;20162;-83
2022/03/26 06:55:20;;;;;;;32.50;21.50;;;7.10;1.00;8.60;94992.00;;;;7425289;19;20175;-82
2022/03/26 06:57:51;;;;;;;33.50;21.13;;;7.50;1.00;9.00;95079.00;;;;7418740;19;20144;-74
2022/03/26 07:00:18;;;;;;;39.17;21.20;;;7.90;99.90;9.60;94975.00;;;;7420158;19;20144;-75
2022/03/26 07:02:52;;;;;;;33.50;21.27;;;8.20;99.90;9.80;95049.00;;;;7425110;19;20124;-80
2022/03/26 07:05:20;;;;;;;34.13;22.03;;;8.60;99.90;10.20;95062.00;;;;7426126;19;20152;-82
2022/03/26 07:07:51;;;;;;;33.80;23.17;;;9.00;99.90;10.80;95037.00;;;;7423146;19;20137;-82
2022/03/26 07:10:25;;;;;;;33.80;22.08;;;9.20;99.90;10.60;95048.00;;;;7421871;19;20171;-79
2022/03/26 07:12:53;;;;;;;34.47;22.88;;;9.30;99.90;10.80;95013.00;;;;7422269;19;20164;-81
2022/03/26 07:15:21;;;;;;;35.72;22.70;;;9.40;99.90;10.90;94884.00;;;;7424435;19;20129;-80
2022/03/26 07:17:55;;;;;;;31.98;20.65;;;9.50;99.90;11.30;95023.00;;;;7421863;19;20128;-81
2022/03/26 07:20:22;;;;;;;33.05;21.95;;;9.60;99.90;11.00;95088.00;;;;7424229;19;20168;-76
2022/03/26 07:22:50;;;;;;;34.45;21.42;;;9.80;99.90;11.50;95054.00;;;;7421391;19;20606;-83
2022/03/26 07:25:25;;;;;;;36.40;22.70;;;9.90;99.90;12.00;95100.00;;;;7422517;19;20822;-79
2022/03/26 07:27:53;;;;;;;35.92;23.52;;;10.20;99.90;11.90;94818.00;;;;7424139;19;20152;-74
2022/03/26 07:30:23;;;;;;;36.17;23.60;;;10.40;99.90;12.20;95086.00;;;;7423481;19;20190;-80
2022/03/26 07:33:08;;;;;;;34.20;22.13;;;10.50;99.90;12.60;95090.00;;;;7421346;19;20605;-83
2022/03/26 07:35:41;;;;;;;38.70;22.25;;;10.80;99.90;12.80;94991.00;;;;7424569;19;20151;-81
2022/03/26 07:38:15;;;;;;;32.40;21.67;;;10.90;99.90;13.00;94905.00;;;;7420031;19;20157;-79
2022/03/26 07:40:53;;;;;;;34.13;21.75;;;10.90;99.90;12.70;94818.00;;;;7425264;19;20128;-77
2022/03/26 07:43:31;;;;;;;37.72;22.23;;;11.10;99.90;13.20;95074.00;;;;7425419;19;20189;-80
2022/03/26 07:46:07;;;;;;;31.98;21.95;;;11.30;99.90;13.10;95082.00;;;;7424820;19;20161;-79
2022/03/26 07:48:51;;;;;;;33.85;22.75;;;11.20;99.90;12.80;95088.00;;;;7422758;19;20627;-78
2022/03/26 07:51:24;;;;;;;33.33;21.95;;;11.30;99.90;12.50;95007.00;;;;7422164;19;20140;-79
2022/03/26 07:53:58;;;;;;;35.58;22.92;;;11.30;99.90;12.40;95090.00;;;;7421024;19;20152;-75
2022/03/26 07:56:26;;;;;;;38.28;23.92;;;11.20;99.90;12.80;94955.00;;;;7427194;19;20141;-77
2022/03/26 07:59:00;;;;;;;34.35;21.25;;;11.10;99.90;13.00;94979.00;;;;7421774;19;20188;-80
2022/03/26 08:01:36;;;;;;;40.47;25.48;;;11.20;99.90;12.70;94962.00;;;;7423935;19;20147;-81
2022/03/26 08:04:09;;;;;;;36.97;22.60;;;11.40;99.90;13.20;94816.00;;;;7425448;19;20185;-77
2022/03/26 08:06:49;;;;;;;38.10;23.83;;;11.50;99.90;13.50;95103.00;;;;7424981;19;20136;-79
2022/03/26 08:09:20;;;;;;;37.08;23.02;;;11.80;99.90;13.40;94955.00;;;;7424562;19;20172;-82
2022/03/26 08:11:58;;;;;;;37.00;23.00;;;12.10;99.90;13.50;94919.00;;;;7426102;19;20135;-82
2022/03/26 08:14:33;;;;;;;36.55;23.67;;;12.40;99.90;13.80;95012.00;;;;7424348;19;20129;-82
2022/03/26 08:17:12;;;;;;;35.15;23.15;;;12.60;99.90;13.90;95058.00;;;;7420186;19;20125;-78
2022/03/26 08:19:41;;;;;;;36.70;23.83;;;12.80;99.90;14.50;95123.00;;;;7423174;19;20117;-74
2022/03/26 08:22:20;;;;;;;42.95;24.58;;;13.20;99.90;14.60;95110.00;;;;7421694;19;20152;-81
2022/03/26 08:25:03;;;;;;;38.72;24.05;;;13.40;99.90;14.50;95041.00;;;;7424258;19;20168;-77
2022/03/26 08:27:38;;;;;;;41.45;24.23;;;13.70;99.90;14.00;95027.00;;;;7422562;19;20141;-81
2022/03/26 08:30:17;;;;;;;34.25;23.25;;;13.70;99.90;13.90;95076.00;;;;7430481;19;20180;-78
2022/03/26 08:32:58;;;;;;;42.53;24.05;;;13.80;99.90;14.60;95082.00;;;;7431556;19;20180;-77
2022/03/26 08:35:25;;;;;;;36.80;23.98;;;13.90;99.90;14.70;95074.00;;;;7429609;19;20152;-76
2022/03/26 08:38:04;;;;;;;40.40;25.02;;;13.90;99.90;15.20;95122.00;;;;7426753;19;20212;-81
2022/03/26 08:40:35;;;;;;;36.63;23.90;;;13.70;99.90;15.30;95133.00;;;;7432075;19;20145;-81
2022/03/26 08:43:13;;;;;;;36.85;24.33;;;14.00;99.90;16.30;95140.00;;;;7430343;19;20156;-78
2022/03/26 08:45:41;;;;;;;40.28;25.85;;;14.30;99.90;16.20;95117.00;;;;7425857;19;20131;-78
2022/03/26 08:48:17;;;;;;;39.25;26.10;;;14.70;99.90;16.20;95107.00;;;;7429877;19;20134;-79
2022/03/26 08:50:45;;;;;;;46.33;24.55;;;15.00;99.90;16.70;95129.00;;;;7429277;19;20144;-81
2022/03/26 08:53:13;;;;;;;40.08;25.13;;;15.10;99.90;17.10;95131.00;;;;7429048;19;20133;-77
2022/03/26 08:55:47;;;;;;;35.88;24.77;;;15.30;99.90;17.60;95123.00;;;;7414046;19;20144;-79
2022/03/26 08:58:17;;;;;;;46.30;26.88;;;15.30;99.90;17.30;95128.00;;;;7412414;19;20176;-79
2022/03/26 09:00:51;;;;;;;32.80;23.48;;;15.50;99.90;18.00;95097.00;;;;7423623;19;20212;-79
2022/03/26 09:03:25;;;;;;;39.33;23.88;;;15.40;99.90;17.40;95117.00;;;;7410411;19;20168;-81
2022/03/26 09:05:57;;;;;;;48.53;25.20;;;15.60;99.90;17.80;95154.00;;;;7408284;19;20149;-77
2022/03/26 09:08:24;;;;;;;36.10;24.52;;;15.80;98.30;17.50;95126.00;;;;7410316;19;20138;-82
2022/03/26 09:10:58;;;;;;;38.08;24.15;;;15.70;99.90;17.20;95142.00;;;;7405231;19;20587;-79
2022/03/26 09:13:26;;;;;;;34.55;24.77;;;16.10;99.90;18.10;95162.00;;;;7410308;19;20177;-79
2022/03/26 09:15:56;;;;;;;36.75;24.60;;;16.00;92.50;18.20;95157.00;;;;7414012;19;20136;-80
2022/03/26 09:18:30;;;;;;;39.10;26.20;;;16.20;99.90;18.20;95145.00;;;;7413261;19;20155;-80
2022/03/26 09:20:58;;;;;;;34.00;25.27;;;16.20;90.60;18.30;95138.00;;;;7414112;19;20143;-78
2022/03/26 09:23:32;;;;;;;44.60;26.10;;;16.60;91.90;18.60;95130.00;;;;7406868;19;20144;-80
2022/03/26 09:26:10;;;;;;;40.05;25.30;;;17.20;72.20;19.00;95158.00;;;;7417061;19;20128;-77
2022/03/26 09:28:38;;;;;;;36.15;26.08;;;17.60;55.90;18.80;95164.00;;;;7410234;19;20173;-79
2022/03/26 09:31:05;;;;;;;38.40;26.00;;;17.50;51.00;18.70;95156.00;;;;7396575;19;20133;-77
2022/03/26 09:33:51;;;;;;;41.38;25.58;;;17.60;51.10;19.00;95151.00;;;;7394225;19;20163;-77
2022/03/26 09:36:19;;;;;;;37.58;26.67;;;17.60;42.10;18.90;95155.00;;;;7397957;19;20161;-78
2022/03/26 09:38:53;;;;;;;32.58;24.98;;;17.50;49.60;18.30;95140.00;;;;7398156;19;20594;-83
2022/03/26 09:41:22;;;;;;;39.30;25.70;;;17.20;42.80;18.50;95142.00;;;;7397551;19;20158;-80
2022/03/26 09:43:50;;;;;;;43.72;26.73;;;16.50;61.40;18.40;95158.00;;;;7395057;19;20141;-78
2022/03/26 09:46:25;;;;;;;35.20;26.83;;;16.80;63.80;18.90;95156.00;;;;7397887;19;20132;-81
2022/03/26 09:48:53;;;;;;;39.53;25.35;;;17.20;52.90;19.40;95162.00;;;;7396327;19;20603;-81
2022/03/26 09:51:23;;;;;;;40.38;27.05;;;17.50;46.60;19.60;95157.00;;;;7398812;19;20180;-80
2022/03/26 09:53:59;;;;;;;36.72;25.15;;;17.40;34.90;18.70;95152.00;;;;7397428;19;20216;-77
2022/03/26 09:56:28;;;;;;;36.42;25.85;;;17.20;47.10;18.60;95164.00;;;;7399658;19;20633;-79
2022/03/26 09:58:58;;;;;;;37.38;26.13;;;17.30;46.50;19.90;95126.00;;;;7394338;19;20137;-80
2022/03/26 10:01:33;;;;;;;35.78;26.02;;;17.50;46.80;19.30;95151.00;;;;7397173;19;20144;-81
2022/03/26 10:04:21;;;;;;;36.78;24.83;;;17.50;32.40;18.90;95159.00;;;;7397373;19;20784;-77
2022/03/26 10:07:02;;;;;;;37.00;25.50;;;17.30;42.00;19.40;95132.00;;;;7395822;19;20137;-78
2022/03/26 10:09:39;;;;;;;34.50;24.95;;;17.50;36.60;18.80;95159.00;;;;7401048;19;20155;-78
2022/03/26 10:12:19;;;;;;;37.10;24.95;;;17.80;32.70;19.30;95155.00;;;;7400314;19;20132;-78
2022/03/26 10:14:51;;;;;;;37.88;26.17;;;18.00;26.00;19.40;95159.00;;;;7393942;19;20145;-79
2022/03/26 10:17:34;;;;;;;32.97;24.35;;;18.10;21.70;19.30;95134.00;;;;7397072;19;20160;-79
2022/03/26 10:20:13;;;;;;;38.17;25.17;;;18.50;18.10;20.10;95145.00;;;;7397397;19;20175;-82
2022/03/26 10:22:52;;;;;;;34.13;25.33;;;18.50;14.60;19.40;95145.00;;;;7400821;19;20128;-77
2022/03/26 10:25:23;;;;;;;37.42;25.73;;;18.20;20.70;19.90;95150.00;;;;7394381;19;20132;-80
2022/03/26 10:28:17;;;;;;;40.40;26.38;;;18.10;16.00;19.20;95101.00;;;;7395945;19;20578;-79
2022/03/26 10:33:46;;;;;;;39.17;24.65;;;17.80;20.00;19.80;95128.00;;;;7399532;19;20804;-78
2022/03/26 10:36:27;;;;;;;32.70;24.08;;;18.00;23.40;19.80;95132.00;;;;7400297;19;20158;-79
2022/03/26 10:39:01;;;;;;;34.33;23.90;;;18.00;16.90;20.00;95133.00;;;;7394939;19;20161;-79
2022/03/26 10:41:33;;;;;;;33.30;24.73;;;18.20;16.30;20.10;95153.00;;;;7399010;19;20132;-78
2022/03/26 10:44:14;;;;;;;34.35;25.23;;;18.50;13.70;19.80;95143.00;;;;7398940;19;20121;-78
2022/03/26 10:46:57;;;;;;;35.85;24.30;;;18.80;8.10;19.70;95150.00;;;;7394958;19;20511;-80
2022/03/26 10:49:36;;;;;;;36.72;24.42;;;18.90;4.30;19.80;95150.00;;;;7392811;19;20125;-77
2022/03/26 10:52:17;;;;;;;33.03;24.40;;;18.50;5.00;19.60;95123.00;;;;7392896;19;20145;-78
2022/03/26 10:54:49;;;;;;;33.20;23.92;;;18.30;8.10;20.40;95143.00;;;;7393996;19;20621;-78
2022/03/26 10:57:24;;;;;;;33.65;23.38;;;18.50;7.90;20.20;95129.00;;;;7395359;19;20142;-76
2022/03/26 10:59:52;;;;;;;36.90;24.30;;;18.40;99.90;19.90;95140.00;;;;7395411;19;20176;-77
2022/03/26 11:02:19;;;;;;;33.55;23.85;;;18.20;8.20;19.40;95134.00;;;;7394688;19;20533;-79
2022/03/26 11:04:53;;;;;;;33.10;23.42;;;17.70;99.90;19.60;95131.00;;;;7395364;19;20141;-78
2022/03/26 11:07:21;;;;;;;34.28;24.13;;;17.50;99.90;19.30;95152.00;;;;7395642;19;20196;-77
2022/03/26 11:09:50;;;;;;;34.90;24.50;;;17.50;14.30;20.00;95129.00;;;;7394758;19;20180;-80
2022/03/26 11:12:31;;;;;;;39.33;23.67;;;17.60;13.10;19.60;95147.00;;;;7396603;19;20152;-78
2022/03/26 11:15:21;;;;;;;35.10;24.65;;;18.20;10.10;20.70;95129.00;;;;7397080;19;20607;-76
2022/03/26 11:18:24;;;;;;;34.95;24.95;;;18.70;7.50;20.70;95146.00;;;;7396074;19;20133;-77
2022/03/26 11:21:40;;;;;;;40.28;27.15;;;18.70;4.70;20.80;95138.00;;;;7397143;19;20540;-80
2022/03/26 11:25:08;;;;;;;34.15;24.92;;;18.60;2.20;20.00;95131.00;;;;7400211;19;20618;-79
2022/03/26 11:27:44;;;;;;;35.97;25.38;;;19.00;1.00;20.60;95143.00;;;;7397742;19;20153;-75
2022/03/26 11:31:09;;;;;;;36.28;24.90;;;19.00;1.00;21.00;95115.00;;;;7396857;19;20175;-78
2022/03/26 11:33:54;;;;;;;35.15;26.02;;;19.30;1.80;21.80;95113.00;;;;7394022;19;20231;-80
2022/03/26 11:36:35;;;;;;;37.67;25.13;;;19.90;1.00;22.20;95131.00;;;;7394764;19;20140;-79
2022/03/26 11:39:22;;;;;;;37.50;25.02;;;20.40;1.00;22.20;95121.00;;;;7396960;19;20133;-78
2022/03/26 11:42:42;;;;;;;41.35;26.83;;;20.60;1.00;23.10;95110.00;;;;7393803;19;20152;-80
2022/03/26 11:51:39;;;;;;;34.95;24.27;;;21.00;1.00;22.60;95117.00;;;;7386995;19;20166;-78
2022/03/26 11:54:36;;;;;;;34.65;24.58;;;20.80;1.00;21.50;95131.00;;;;7389125;19;20639;-79